Portada
METAR-TAF:

METAR-TAF

Aeropuertos :

Aeropuerto de Perpiñán-Rivesaltes

Perpiñán, Francia

latitud: 42-44N, longitud: 002-52E, altitud: 43 m

Observación

El informe se hizo hace 40 minutos, a las 15:00 UTC
Viento 9 kt del este
Temperatura 13°C
Humedad 72%
Presión 1028 hPa
Visibilidad 10 km o más
Cielo nuboso a una altura de 1700 ft

METAR: LFMP 161500Z AUTO 08009KT 9999 BKN017 13/08 Q1028 NOSIG

Hora: 16:40 (15:40 UTC)

Pronóstico

El informe se hizo hace 1 hora y 40 minutos, a las 14:00 UTC
Pronóstico válido del 16 a las 15 UTC al 17 a las 15 UTC
Viento 12 kt del este
Visibilidad 10 km o más
sin nubes por debajo de 1500 m y sin presencia de cumulonimbus.
Temporalmente
del 16 a las 21 UTC al 17 a las 15 UTC
Nubes dispersas a una altura de 1000 ft
Cielo nuboso a una altura de 2000 ft

TAF: LFMP 161400Z 1615/1715 10012KT CAVOK TEMPO 1621/1715 SCT010 BKN020

Observaciones y pronósticos meteorológicos de más de 4000 aeropuertos (mensajes METAR y TAF).

Los puntos amarillos y rojos representan las estaciones disponibles.

Ponga el ratón en el punto deseado para ver el nombre de la estación.

Haga clic para ver las observaciones y los pronósticos meteorológicos.

Para cambiar el mapa : haga clic en los botones verdes con una cruz de color negro para hacer un zoom, en el botón verde con un guión para alejar o en las flechas verdes para mapas adyacentes.


METAR-TAF: